Time;durP1;ratioP1;P1;durP2;ratioP2;P2;SDS_P1;SDS_P2;PMS_P1;PMS_P2;Temp;Humidity;BMP_temperature;BMP_pressure;BME280_temperature;BME280_humidity;BME280_pressure;Samples;Min_cycle;Max_cycle;Signal;HPM_P1;HPM_P2
2022/10/28 00:01:02;;;;;;;14.52;7.55;;;;;;;15.67;50.63;100979.03;5051522;28;20033;-43
2022/10/28 00:03:28;;;;;;;17.23;8.05;;;;;;;15.69;50.64;100987.69;5051084;28;20024;-41
2022/10/28 00:05:53;;;;;;;16.15;7.55;;;;;;;15.52;51.52;100982.75;5051111;28;20107;-40
2022/10/28 00:08:19;;;;;;;17.10;8.15;;;;;;;15.44;51.58;100983.78;5051253;28;20028;-42
2022/10/28 00:10:44;;;;;;;16.27;7.15;;;;;;;15.51;51.27;100977.59;5051138;28;20136;-40
2022/10/28 00:13:09;;;;;;;16.13;7.50;;;;;;;15.60;50.35;100971.00;5049454;28;20381;-41
2022/10/28 00:15:35;;;;;;;15.35;7.55;;;;;;;15.62;50.17;100977.78;5051085;28;20025;-41
2022/10/28 00:18:00;;;;;;;18.77;7.65;;;;;;;15.74;50.37;100974.53;5050997;28;20021;-41
2022/10/28 00:20:26;;;;;;;13.38;7.30;;;;;;;15.71;50.83;100978.44;5051029;28;20032;-42
2022/10/28 00:22:52;;;;;;;14.70;7.18;;;;;;;15.70;50.56;100984.00;5050561;28;20053;-41
2022/10/28 00:25:23;;;;;;;15.32;6.80;;;;;;;15.58;51.22;100981.13;5050808;28;20102;-41
2022/10/28 00:27:49;;;;;;;15.70;7.57;;;;;;;15.51;51.72;100986.47;5050666;28;20033;-43
2022/10/28 00:30:14;;;;;;;12.00;6.78;;;;;;;15.42;51.71;100979.66;5051488;28;20434;-47
2022/10/28 00:32:39;;;;;;;14.27;7.25;;;;;;;15.53;52.25;100979.03;5051106;28;20469;-41
2022/10/28 00:35:05;;;;;;;16.85;7.18;;;;;;;15.55;52.27;100986.88;5049012;28;20029;-42
2022/10/28 00:37:31;;;;;;;14.38;6.85;;;;;;;15.58;51.62;100979.25;5050718;28;20069;-41
2022/10/28 00:39:56;;;;;;;12.52;6.95;;;;;;;15.63;51.49;100975.94;5050991;28;20046;-41
2022/10/28 00:42:22;;;;;;;11.50;7.10;;;;;;;15.51;52.09;100982.97;5050368;28;20098;-41
2022/10/28 00:45:03;;;;;;;12.45;6.95;;;;;;;15.61;51.46;100986.06;5050618;28;20021;-41
2022/10/28 00:47:38;;;;;;;14.68;6.53;;;;;;;15.47;52.01;100984.41;5049734;28;20025;-41
2022/10/28 00:50:23;;;;;;;14.20;6.60;;;;;;;15.39;51.93;100985.44;5050449;28;20506;-41
2022/10/28 00:52:54;;;;;;;13.95;7.00;;;;;;;15.34;52.38;100983.34;5049928;28;20029;-41
2022/10/28 00:55:20;;;;;;;13.63;6.80;;;;;;;15.42;52.40;100987.69;5050546;28;20025;-41
2022/10/28 00:57:46;;;;;;;15.90;6.95;;;;;;;15.50;52.16;100983.97;5049947;28;20029;-41
2022/10/28 01:00:13;;;;;;;15.27;7.57;;;;;;;15.52;52.15;100981.94;5049811;28;20473;-41
2022/10/28 01:02:45;;;;;;;14.88;6.85;;;;;;;15.58;52.63;100978.44;5050294;28;20032;-41
2022/10/28 01:05:13;;;;;;;11.77;6.65;;;;;;;15.45;52.40;100989.97;5050095;28;20033;-41
2022/10/28 01:07:38;;;;;;;16.23;7.30;;;;;;;15.47;52.12;100985.22;5049915;28;20086;-41
2022/10/28 01:10:05;;;;;;;14.13;6.65;;;;;;;15.45;52.78;100976.56;5050045;28;20385;-41
2022/10/28 01:12:42;;;;;;;12.75;6.85;;;;;;;15.58;52.60;100973.88;5050079;28;20021;-41
2022/10/28 01:15:36;;;;;;;15.73;7.20;;;;;;;15.58;52.38;100975.75;5050102;28;20068;-41
2022/10/28 01:18:18;;;;;;;16.55;7.10;;;;;;;15.53;52.68;100984.41;5049952;28;20032;-41
2022/10/28 01:21:08;;;;;;;16.48;7.47;;;;;;;15.43;52.77;100984.81;5050089;28;20029;-41
2022/10/28 01:23:39;;;;;;;12.95;7.35;;;;;;;15.43;52.43;100979.44;5049624;28;20077;-41
2022/10/28 01:26:10;;;;;;;13.40;7.47;;;;;;;15.14;53.13;100977.97;5049918;28;20020;-41
2022/10/28 01:29:06;;;;;;;15.32;7.40;;;;;;;14.95;53.87;100982.25;5049711;28;20020;-41
2022/10/28 01:31:36;;;;;;;13.32;7.68;;;;;;;15.00;53.15;100982.50;5049864;28;20107;-41
2022/10/28 01:34:14;;;;;;;16.05;7.05;;;;;;;14.95;54.03;100982.25;5049547;28;20104;-41
2022/10/28 01:36:44;;;;;;;14.02;7.55;;;;;;;14.93;54.29;100988.88;5049938;28;20024;-41
2022/10/28 01:39:22;;;;;;;14.85;7.28;;;;;;;14.65;53.62;100933.53;5049857;28;20461;-42
2022/10/28 01:42:01;;;;;;;13.73;7.15;;;;;;;14.88;53.38;100976.03;5049706;28;20017;-41
2022/10/28 01:44:33;;;;;;;14.52;8.00;;;;;;;14.93;53.72;100980.81;5049416;28;20044;-41
2022/10/28 01:47:04;;;;;;;22.92;8.52;;;;;;;14.66;54.57;100978.88;5049709;28;20021;-42
2022/10/28 01:49:41;;;;;;;14.27;7.78;;;;;;;14.62;54.16;100980.31;5049856;28;20021;-41
2022/10/28 01:52:11;;;;;;;16.70;8.10;;;;;;;14.60;54.53;100976.16;5049432;28;20071;-41
2022/10/28 01:54:40;;;;;;;17.85;8.77;;;;;;;14.59;54.09;100969.97;5049572;28;20033;-41
2022/10/28 01:57:07;;;;;;;15.60;8.23;;;;;;;14.70;53.82;100979.31;5049872;28;20104;-41
2022/10/28 01:59:34;;;;;;;14.18;8.23;;;;;;;14.62;54.76;100987.50;5053125;28;20429;-41
2022/10/28 02:02:00;;;;;;;16.10;8.45;;;;;;;14.75;53.91;100984.88;5053624;28;20029;-41
2022/10/28 02:04:25;;;;;;;20.38;8.75;;;;;;;14.66;53.74;100992.25;5053712;28;20029;-41
2022/10/28 02:06:56;;;;;;;19.02;9.10;;;;;;;14.66;54.25;100997.63;5053631;28;20473;-41
2022/10/28 02:09:33;;;;;;;21.05;9.30;;;;;;;14.60;53.95;100994.91;5053451;28;20043;-42
2022/10/28 02:12:14;;;;;;;21.42;9.82;;;;;;;14.51;54.75;100998.75;5053116;28;20087;-42
2022/10/28 02:14:47;;;;;;;;;;;;;;;14.71;54.51;101001.56;5053449;28;20021;-42
2022/10/28 02:17:29;;;;;;;19.73;9.13;;;;;;;14.65;54.93;100998.63;5052685;28;19915;-41
2022/10/28 02:20:17;;;;;;;17.13;8.35;;;;;;;14.35;55.62;101000.72;5052752;28;20029;-41
2022/10/28 02:22:58;;;;;;;17.20;8.77;;;;;;;14.46;55.01;100996.66;5052866;28;20041;-41
2022/10/28 02:26:05;;;;;;;19.33;8.73;;;;;;;14.47;55.46;101001.00;5053091;28;20021;-41
2022/10/28 02:28:35;;;;;;;18.63;8.52;;;;;;;14.39;55.47;101004.69;5047942;28;20045;-43
2022/10/28 02:31:05;;;;;;;;;;;;;;;14.41;56.11;100996.44;5053974;28;20078;-43
2022/10/28 02:33:35;;;;;;;20.85;9.82;;;;;;;14.25;55.83;101001.09;5053501;28;20142;-43
2022/10/28 02:36:03;;;;;;;19.30;9.30;;;;;;;14.19;56.04;100998.38;5053556;28;20025;-43
2022/10/28 02:38:37;;;;;;;21.20;9.20;;;;;;;14.09;56.65;100996.06;5053968;28;20350;-40
2022/10/28 02:41:11;;;;;;;21.55;9.00;;;;;;;14.12;56.26;100965.38;5053757;28;20029;-43
2022/10/28 02:43:41;;;;;;;21.80;9.50;;;;;;;14.34;56.26;101001.75;5053197;28;20056;-41
2022/10/28 02:46:07;;;;;;;;;;;;;;;14.68;55.69;101004.63;5053698;28;20025;-44
2022/10/28 02:48:38;;;;;;;21.42;10.38;;;;;;;14.60;55.53;101002.94;5053532;28;19932;-41
2022/10/28 02:51:11;;;;;;;20.65;10.52;;;;;;;14.65;55.14;101008.53;5053499;28;20032;-41
2022/10/28 02:54:08;;;;;;;22.70;10.18;;;;;;;14.69;54.67;101008.97;5053035;28;20044;-42
2022/10/28 02:56:44;;;;;;;22.70;11.20;;;;;;;14.54;55.00;101006.38;5049884;28;20033;-43
2022/10/28 02:59:11;;;;;;;22.42;11.95;;;;;;;14.45;54.70;101011.91;5053301;28;20025;-43
2022/10/28 03:01:37;;;;;;;21.00;11.48;;;;;;;14.54;54.62;101014.44;5053195;28;20032;-42
2022/10/28 03:04:03;;;;;;;24.83;12.13;;;;;;;14.56;54.47;101013.19;5053056;28;20060;-42
2022/10/28 03:06:29;;;;;;;21.30;12.75;;;;;;;14.47;54.56;101025.94;5052774;28;20512;-42
2022/10/28 03:08:55;;;;;;;24.50;13.07;;;;;;;14.53;54.34;101021.66;5052762;28;20025;-43
2022/10/28 03:11:20;;;;;;;25.50;14.32;;;;;;;14.53;54.25;101018.16;5052484;28;20475;-42
2022/10/28 03:13:45;;;;;;;23.10;12.48;;;;;;;14.53;54.22;101021.66;5052567;28;20389;-42
2022/10/28 03:16:11;;;;;;;23.05;12.80;;;;;;;14.54;54.08;101025.13;5052980;28;20085;-42
2022/10/28 03:18:36;;;;;;;34.65;19.30;;;;;;;14.16;55.34;101025.53;5052781;28;20021;-42
2022/10/28 03:21:02;;;;;;;52.50;30.90;;;;;;;14.30;55.25;101021.94;5052887;28;20021;-42
2022/10/28 03:23:27;;;;;;;42.63;26.35;;;;;;;14.39;54.85;101019.91;5052822;28;20478;-42
2022/10/28 03:25:52;;;;;;;32.10;18.85;;;;;;;14.38;55.01;101021.75;5052620;28;20016;-42
2022/10/28 03:28:18;;;;;;;49.78;25.30;;;;;;;14.34;54.63;101023.19;5052468;28;20020;-43
2022/10/28 03:30:43;;;;;;;42.97;22.90;;;;;;;14.39;54.50;101025.25;5052848;28;20052;-43
2022/10/28 03:33:09;;;;;;;22.73;12.63;;;;;;;14.44;54.31;101031.69;5052337;28;20134;-43
2022/10/28 03:35:34;;;;;;;19.02;10.60;;;;;;;14.34;53.48;101036.56;5052987;28;20130;-42
2022/10/28 03:38:00;;;;;;;18.27;8.93;;;;;;;14.42;53.72;101025.69;5052380;28;20017;-42
2022/10/28 03:40:25;;;;;;;18.35;9.60;;;;;;;14.55;53.04;101024.13;5052402;28;20017;-43
2022/10/28 03:42:50;;;;;;;17.15;9.38;;;;;;;14.40;53.12;101033.09;5052265;28;20056;-42
2022/10/28 03:45:16;;;;;;;18.65;8.82;;;;;;;14.36;53.60;101025.66;5052338;28;20017;-42
2022/10/28 03:47:41;;;;;;;14.88;8.57;;;;;;;14.20;54.05;101040.19;5051705;28;20104;-42
2022/10/28 03:50:07;;;;;;;14.93;8.38;;;;;;;14.17;53.88;101035.22;5052489;28;20100;-42
2022/10/28 03:52:33;;;;;;;13.68;7.97;;;;;;;14.18;54.00;101026.16;5052000;28;20087;-42
2022/10/28 03:54:58;;;;;;;17.17;8.02;;;;;;;14.26;53.72;101032.19;5051888;28;20029;-40
2022/10/28 03:57:24;;;;;;;14.88;7.93;;;;;;;14.15;53.96;101034.59;5052207;28;20138;-42
2022/10/28 03:59:49;;;;;;;16.02;8.23;;;;;;;14.13;53.87;101039.31;5051896;28;20028;-43
2022/10/28 04:02:14;;;;;;;13.25;8.00;;;;;;;14.17;54.25;101035.22;5052714;28;20025;-44
2022/10/28 04:04:40;;;;;;;16.02;8.43;;;;;;;14.15;54.26;101027.38;5051411;28;20111;-43
2022/10/28 04:07:06;;;;;;;20.50;12.45;;;;;;;14.15;56.64;101029.25;5050972;28;20025;-44
2022/10/28 04:09:31;;;;;;;36.00;20.92;;;;;;;14.17;54.33;101028.03;5050900;28;20027;-42
2022/10/28 04:11:56;;;;;;;33.55;18.17;;;;;;;14.19;53.98;101022.47;5052302;28;20477;-42
2022/10/28 04:14:22;;;;;;;25.02;12.73;;;;;;;14.48;57.97;101032.94;5051590;28;20057;-42
2022/10/28 04:16:47;;;;;;;14.20;8.43;;;;;;;14.64;54.44;101031.81;5052021;28;20027;-43
2022/10/28 04:19:13;;;;;;;18.27;9.25;;;;;;;14.64;53.17;101034.50;5051973;28;20028;-43
2022/10/28 04:21:38;;;;;;;16.15;8.80;;;;;;;14.47;53.08;101030.47;5051716;28;20499;-44
2022/10/28 04:24:04;;;;;;;15.27;8.95;;;;;;;14.32;53.83;101043.13;5051064;28;20111;-43
2022/10/28 04:26:30;;;;;;;21.38;8.85;;;;;;;14.32;53.90;101035.09;5051889;28;20017;-43
2022/10/28 04:28:56;;;;;;;19.23;8.68;;;;;;;14.14;56.81;101036.44;5051696;28;20078;-43
2022/10/28 04:31:22;;;;;;;19.08;9.35;;;;;;;13.85;55.81;101032.94;5047349;28;20116;-43
2022/10/28 04:33:47;;;;;;;25.65;9.75;;;;;;;14.00;54.97;101046.22;5058193;28;20387;-43
2022/10/28 04:36:13;;;;;;;18.05;9.45;;;;;;;14.05;54.55;101042.94;5041157;28;20167;-43
2022/10/28 04:38:38;;;;;;;22.33;9.27;;;;;;;13.88;55.17;101037.91;5051188;28;20384;-42
2022/10/28 04:41:03;;;;;;;17.25;8.88;;;;;;;13.67;55.39;101041.44;5048047;28;20055;-42
2022/10/28 04:43:29;;;;;;;18.10;8.73;;;;;;;13.61;55.52;101036.84;5071196;28;20020;-41
2022/10/28 04:45:54;;;;;;;25.30;10.13;;;;;;;13.74;55.25;101038.78;5070987;28;20417;-42
2022/10/28 04:48:20;;;;;;;19.13;8.82;;;;;;;13.59;55.96;101030.03;5062475;28;20017;-42
2022/10/28 04:50:45;;;;;;;20.23;9.77;;;;;;;13.62;56.33;101030.47;5052591;28;20126;-43
2022/10/28 04:53:12;;;;;;;39.80;15.88;;;;;;;13.46;60.81;101039.59;5050724;28;20094;-41
2022/10/28 04:55:38;;;;;;;32.30;13.50;;;;;;;13.57;58.92;101035.56;5049211;28;20025;-44
2022/10/28 04:58:03;;;;;;;31.60;10.73;;;;;;;13.60;57.12;101035.19;5048318;28;20086;-43
2022/10/28 05:00:29;;;;;;;27.02;10.15;;;;;;;13.66;55.91;101034.41;5070431;28;20055;-42
2022/10/28 05:02:55;;;;;;;23.65;9.65;;;;;;;13.70;56.11;101034.84;5060031;28;20064;-42
2022/10/28 05:05:21;;;;;;;19.10;9.23;;;;;;;13.65;55.79;101038.13;5050940;28;20025;-43
2022/10/28 05:07:47;;;;;;;17.73;8.70;;;;;;;13.77;55.65;101042.97;5050956;28;20032;-43
2022/10/28 05:10:16;;;;;;;25.10;10.05;;;;;;;13.89;55.60;101042.22;5066976;28;20477;-43
2022/10/28 05:12:43;;;;;;;24.15;9.93;;;;;;;14.09;54.76;101046.91;5051180;28;20056;-42
2022/10/28 05:15:10;;;;;;;21.25;10.18;;;;;;;14.16;54.98;101049.63;5059236;28;20532;-42
2022/10/28 05:17:38;;;;;;;26.48;9.77;;;;;;;14.14;55.06;101046.31;5058575;28;20044;-42
2022/10/28 05:20:04;;;;;;;27.15;9.85;;;;;;;14.24;55.10;101052.13;5039490;28;20025;-44
2022/10/28 05:22:29;;;;;;;25.70;11.13;;;;;;;14.55;53.84;101054.41;5031470;28;20056;-43
2022/10/28 05:24:54;;;;;;;29.30;13.45;;;;;;;14.70;53.53;101057.00;5031014;28;20029;-43
2022/10/28 05:27:20;;;;;;;28.20;10.77;;;;;;;14.74;54.50;101060.94;5031192;28;20033;-43
2022/10/28 05:29:45;;;;;;;26.65;9.70;;;;;;;15.14;52.32;101063.78;5031304;28;20059;-42
2022/10/28 05:32:10;;;;;;;25.70;8.90;;;;;;;15.46;51.57;101072.13;5030741;28;20215;-42
2022/10/28 05:34:36;;;;;;;29.65;9.05;;;;;;;15.58;51.48;101078.50;5030574;28;20034;-42
2022/10/28 05:37:01;;;;;;;19.58;8.27;;;;;;;15.78;51.31;101083.09;5029873;28;20040;-42
2022/10/28 05:39:27;;;;;;;20.67;8.68;;;;;;;15.95;50.47;101083.53;5029816;28;20559;-43
2022/10/28 05:41:52;;;;;;;20.20;9.43;;;;;;;16.21;50.08;101080.03;5030026;28;20026;-45
2022/10/28 05:44:17;;;;;;;22.67;9.25;;;;;;;16.50;50.18;101085.97;5030000;28;20040;-42
2022/10/28 05:46:43;;;;;;;16.70;8.23;;;;;;;16.78;48.90;101089.19;5029500;28;20522;-43
2022/10/28 05:49:08;;;;;;;19.20;8.25;;;;;;;17.31;48.17;101087.34;5044675;28;20025;-42
2022/10/28 05:51:34;;;;;;;22.67;7.50;;;;;;;17.68;47.18;101084.84;5050208;28;20032;-42
2022/10/28 05:53:59;;;;;;;12.70;6.22;;;;;;;18.05;45.71;101088.53;5050348;28;20032;-42
2022/10/28 05:56:24;;;;;;;12.65;5.35;;;;;;;18.17;45.19;101088.63;5050426;28;20434;-43
2022/10/28 05:58:50;;;;;;;9.48;5.03;;;;;;;18.34;44.23;101083.50;5050537;28;20485;-43
2022/10/28 06:01:15;;;;;;;8.88;5.50;;;;;;;18.86;42.83;101096.66;5050099;28;20477;-42
2022/10/28 06:03:41;;;;;;;13.60;5.20;;;;;;;19.18;41.99;101096.47;5049996;28;20083;-43
2022/10/28 06:06:06;;;;;;;12.05;5.68;;;;;;;19.40;41.22;101091.41;5049461;28;20685;-43
2022/10/28 06:08:32;;;;;;;13.98;5.45;;;;;;;19.53;40.97;101100.16;5048970;28;20025;-43
2022/10/28 06:10:57;;;;;;;12.93;5.25;;;;;;;19.70;40.47;101100.31;5048888;28;20400;-42
2022/10/28 06:13:23;;;;;;;21.08;5.70;;;;;;;19.82;40.44;101096.81;5049161;28;20032;-42
2022/10/28 06:15:56;;;;;;;8.38;5.43;;;;;;;19.99;40.45;101103.22;5049409;28;20029;-42
2022/10/28 06:18:22;;;;;;;14.15;5.07;;;;;;;20.44;39.47;101112.63;5050009;28;20337;-42
2022/10/28 06:20:56;;;;;;;10.43;5.63;;;;;;;20.93;38.39;101104.25;5050015;28;20029;-43
2022/10/28 06:23:22;;;;;;;17.25;5.70;;;;;;;20.92;38.71;101108.81;5050220;28;20288;-43
2022/10/28 06:25:48;;;;;;;13.02;6.20;;;;;;;21.23;38.14;101109.44;5049821;28;20476;-42
2022/10/28 06:28:13;;;;;;;10.85;5.80;;;;;;;21.70;37.56;101100.28;5050621;28;20472;-41
2022/10/28 06:30:39;;;;;;;9.77;5.80;;;;;;;21.97;36.28;101106.72;5050092;28;20053;-41
2022/10/28 06:33:04;;;;;;;12.48;5.10;;;;;;;22.20;35.76;101113.84;5050809;28;20033;-43
2022/10/28 06:35:29;;;;;;;10.60;5.22;;;;;;;22.38;35.00;101103.84;5049866;28;20380;-42
2022/10/28 06:37:55;;;;;;;14.10;5.68;;;;;;;22.81;34.58;101100.34;5050282;28;20071;-42
2022/10/28 06:40:22;;;;;;;11.40;5.10;;;;;;;23.04;36.29;101101.22;5049841;28;20024;-42
2022/10/28 06:42:48;;;;;;;12.43;4.88;;;;;;;23.09;35.09;101097.72;5050135;28;20021;-42
2022/10/28 06:45:13;;;;;;;11.02;5.20;;;;;;;23.41;34.22;101093.16;5051328;28;20028;-43
2022/10/28 06:47:39;;;;;;;10.25;4.88;;;;;;;23.35;34.89;101099.63;5053894;28;20025;-41
2022/10/28 06:50:04;;;;;;;10.80;5.00;;;;;;;23.96;33.29;101102.13;5053455;28;20514;-42
2022/10/28 06:52:30;;;;;;;10.93;5.40;;;;;;;24.19;32.19;101100.09;5053366;28;20105;-42
2022/10/28 06:54:55;;;;;;;8.10;5.00;;;;;;;24.67;31.60;101108.31;5053091;28;20078;-41
2022/10/28 06:57:21;;;;;;;10.52;5.03;;;;;;;24.95;31.15;101102.44;5053586;28;20048;-41
2022/10/28 06:59:48;;;;;;;10.90;4.97;;;;;;;25.20;30.62;101102.78;5053226;28;20029;-41
2022/10/28 07:02:14;;;;;;;13.82;4.90;;;;;;;25.27;30.25;101096.03;5053111;28;20025;-42
2022/10/28 07:04:40;;;;;;;9.32;4.70;;;;;;;25.43;30.27;101096.88;5052919;28;20021;-43
2022/10/28 07:07:05;;;;;;;9.90;4.97;;;;;;;25.44;29.97;101103.97;5053647;28;20028;-43
2022/10/28 07:09:32;;;;;;;8.82;4.75;;;;;;;25.60;29.82;101093.88;5053617;28;20365;-42
2022/10/28 07:11:57;;;;;;;13.25;4.90;;;;;;;25.62;29.34;101091.72;5053141;28;20029;-42
2022/10/28 07:14:23;;;;;;;7.28;4.50;;;;;;;25.22;30.41;101098.69;5053398;28;20032;-42
2022/10/28 07:16:48;;;;;;;8.50;4.45;;;;;;;25.04;30.55;101094.56;5052801;28;20017;-41
2022/10/28 07:19:13;;;;;;;9.35;4.70;;;;;;;25.05;30.53;101095.38;5052936;28;20063;-43
2022/10/28 07:21:39;;;;;;;14.30;4.43;;;;;;;25.35;30.91;101091.97;5053314;28;20350;-43
2022/10/28 07:24:04;;;;;;;9.73;4.50;;;;;;;25.81;29.69;101093.91;5052748;28;20120;-43
2022/10/28 07:26:30;;;;;;;11.80;4.35;;;;;;;26.20;29.25;101090.59;5053123;28;20044;-43
2022/10/28 07:28:55;;;;;;;11.48;4.50;;;;;;;26.49;28.70;101102.56;5053003;28;20378;-42
2022/10/28 07:31:21;;;;;;;12.25;4.85;;;;;;;26.41;28.58;101094.94;5052913;28;20025;-42
2022/10/28 07:33:53;;;;;;;9.18;4.30;;;;;;;26.25;29.12;101094.16;5052557;28;20029;-42
2022/10/28 07:36:19;;;;;;;12.10;4.50;;;;;;;26.29;28.57;101097.97;5052613;28;20043;-42
2022/10/28 07:38:48;;;;;;;10.60;4.38;;;;;;;25.94;29.81;101099.66;5053064;28;20021;-43
2022/10/28 07:41:14;;;;;;;14.80;4.40;;;;;;;26.29;28.78;101095.25;5052132;28;20571;-42
2022/10/28 07:43:39;;;;;;;12.23;4.55;;;;;;;26.63;28.30;101102.81;5051582;28;20028;-42
2022/10/28 07:46:06;;;;;;;10.90;5.60;;;;;;;26.26;29.26;101098.53;5052108;28;20040;-42
2022/10/28 07:48:32;;;;;;;15.85;5.55;;;;;;;26.60;28.51;101097.09;5051870;28;20040;-43
2022/10/28 07:51:03;;;;;;;11.18;4.97;;;;;;;26.88;28.20;101099.19;5052177;28;20100;-42
2022/10/28 07:53:29;;;;;;;10.20;5.13;;;;;;;27.15;27.85;101097.13;5052049;28;20499;-42
2022/10/28 07:56:00;;;;;;;9.02;5.50;;;;;;;27.23;27.76;101100.09;5051199;28;20028;-42
2022/10/28 07:58:26;;;;;;;12.40;5.55;;;;;;;27.45;27.41;101093.41;5052211;28;20545;-43
2022/10/28 08:00:52;;;;;;;11.52;5.65;;;;;;;27.78;27.08;101099.16;5051904;28;20029;-43
2022/10/28 08:03:17;;;;;;;13.30;5.88;;;;;;;26.95;28.44;101096.13;5051791;28;20017;-42
2022/10/28 08:05:43;;;;;;;14.43;6.60;;;;;;;27.18;28.15;101091.91;5051484;28;20032;-43
2022/10/28 08:08:08;;;;;;;12.55;5.72;;;;;;;26.97;28.31;101087.66;5051721;28;20075;-43
2022/10/28 08:10:34;;;;;;;13.40;7.00;;;;;;;26.63;29.24;101096.53;5051558;28;20461;-42
2022/10/28 08:13:00;;;;;;;12.35;5.25;;;;;;;27.24;27.86;101090.78;5051389;28;20048;-42
2022/10/28 08:15:27;;;;;;;9.95;5.00;;;;;;;26.82;28.23;101089.34;5051115;28;20027;-41
2022/10/28 08:17:53;;;;;;;9.52;4.55;;;;;;;27.24;27.63;101093.50;5051299;28;20029;-42
2022/10/28 08:20:19;;;;;;;13.60;6.00;;;;;;;26.78;28.25;101087.47;5051572;28;20100;-42
2022/10/28 08:22:44;;;;;;;12.85;4.22;;;;;;;27.23;27.93;101089.16;5051471;28;20437;-49
2022/10/28 08:25:09;;;;;;;9.60;4.38;;;;;;;27.55;27.30;101081.56;5050280;28;20082;-37
2022/10/28 08:27:35;;;;;;;14.35;4.53;;;;;;;27.50;27.73;101083.25;5050663;28;20047;-36
2022/10/28 08:30:00;;;;;;;10.23;3.95;;;;;;;27.87;27.82;101078.31;5050978;28;20020;-37
2022/10/28 08:32:26;;;;;;;13.48;4.03;;;;;;;27.81;27.40;101079.47;5050335;28;20024;-36
2022/10/28 08:34:51;;;;;;;11.90;4.10;;;;;;;27.78;28.19;101074.56;5050891;28;20028;-37
2022/10/28 08:37:17;;;;;;;12.48;4.05;;;;;;;27.93;27.59;101069.00;5050148;28;20442;-37
2022/10/28 08:39:42;;;;;;;8.30;4.05;;;;;;;26.64;28.33;101073.63;5050791;28;20033;-37
2022/10/28 08:42:25;;;;;;;9.75;4.20;;;;;;;27.26;27.48;101071.41;5050913;28;20024;-37
2022/10/28 08:45:09;;;;;;;11.25;4.70;;;;;;;26.47;28.74;101071.19;5050476;28;20021;-36
2022/10/28 08:47:43;;;;;;;9.95;4.63;;;;;;;27.10;28.33;101063.28;5050316;28;20025;-37
2022/10/28 08:50:16;;;;;;;12.27;4.43;;;;;;;27.81;27.58;101063.03;5050810;28;20086;-36
2022/10/28 08:52:41;;;;;;;10.88;4.07;;;;;;;28.16;26.54;101072.88;5050536;28;20618;-37
2022/10/28 08:55:18;;;;;;;10.32;4.00;;;;;;;28.25;26.71;101064.81;5050333;28;20489;-36
2022/10/28 08:57:50;;;;;;;9.40;3.75;;;;;;;28.34;26.19;101067.75;5050720;28;20108;-37
2022/10/28 09:00:18;;;;;;;7.53;4.75;;;;;;;27.85;26.33;101061.38;5050436;28;20321;-37
2022/10/28 09:02:52;;;;;;;6.07;3.60;;;;;;;27.79;27.08;101057.84;5050326;28;20024;-36
2022/10/28 09:05:24;;;;;;;10.93;3.83;;;;;;;27.05;27.19;101054.28;5050124;28;20021;-37
2022/10/28 09:07:50;;;;;;;8.32;4.70;;;;;;;26.36;28.22;101047.75;5050423;28;20017;-36
2022/10/28 09:10:19;;;;;;;10.35;3.85;;;;;;;27.04;27.42;101048.00;5050714;28;20029;-35
2022/10/28 09:12:47;;;;;;;8.32;4.00;;;;;;;27.56;27.10;101051.22;5050744;28;20049;-36
2022/10/28 09:15:45;;;;;;;8.63;3.50;;;;;;;27.96;26.52;101038.31;5050981;28;20147;-36
2022/10/28 09:18:40;;;;;;;7.63;3.67;;;;;;;28.15;26.21;101035.66;5050932;28;20468;-35
2022/10/28 09:21:17;;;;;;;5.78;3.50;;;;;;;28.44;26.11;101034.78;5049736;28;20056;-36
2022/10/28 09:23:55;;;;;;;8.02;3.65;;;;;;;28.37;26.33;101032.41;5049525;28;20053;-37
2022/10/28 09:26:59;;;;;;;6.05;3.17;;;;;;;27.36;26.62;101029.50;5050247;28;20047;-37
2022/10/28 09:29:30;;;;;;;7.10;3.33;;;;;;;27.24;27.40;101027.94;5050189;28;20488;-36
2022/10/28 09:32:11;;;;;;;17.35;6.80;;;;;;;27.17;27.35;101027.47;5050186;28;20036;-37
2022/10/28 09:34:47;;;;;;;9.90;4.97;;;;;;;27.02;27.63;101014.72;5049453;28;20025;-37
2022/10/28 09:37:30;;;;;;;10.98;5.13;;;;;;;27.22;27.47;101021.13;5049292;28;20068;-36
2022/10/28 09:40:01;;;;;;;10.13;4.63;;;;;;;27.09;27.64;101011.66;5050019;28;20033;-37
2022/10/28 09:42:30;;;;;;;12.10;4.57;;;;;;;27.18;27.86;101014.59;5050230;28;20422;-37
2022/10/28 09:45:01;;;;;;;8.18;3.80;;;;;;;27.27;27.76;101000.06;5048896;28;20503;-38
2022/10/28 09:47:36;;;;;;;14.15;5.60;;;;;;;27.62;27.35;100995.41;5050760;28;20032;-36
2022/10/28 09:50:06;;;;;;;9.38;4.22;;;;;;;27.96;27.22;101000.03;5050795;28;20122;-36
2022/10/28 09:52:42;;;;;;;8.68;4.28;;;;;;;28.37;26.61;101001.47;5050196;28;20576;-35
2022/10/28 09:55:18;;;;;;;7.95;4.00;;;;;;;28.37;26.24;100996.81;5050280;28;20025;-37
2022/10/28 09:57:43;;;;;;;8.93;4.05;;;;;;;28.64;26.29;100998.97;5050373;28;20020;-37
2022/10/28 10:00:12;;;;;;;9.35;3.60;;;;;;;28.58;26.47;100997.41;5050571;28;20040;-37
2022/10/28 10:02:39;;;;;;;7.68;3.47;;;;;;;28.77;25.90;100983.72;5050501;28;20017;-37
2022/10/28 10:05:15;;;;;;;29.60;5.32;;;;;;;28.33;26.42;100982.09;5050222;28;20017;-37
2022/10/28 10:07:52;;;;;;;7.72;3.70;;;;;;;27.35;27.59;100975.97;5050020;28;20048;-36
2022/10/28 10:10:42;;;;;;;6.45;3.70;;;;;;;27.69;27.82;100970.47;5049189;28;20017;-36
2022/10/28 10:13:08;;;;;;;5.03;3.65;;;;;;;27.51;27.54;100972.00;5050599;28;20208;-36
2022/10/28 10:15:42;;;;;;;5.60;3.53;;;;;;;26.92;28.92;100971.91;5049324;28;20031;-36
2022/10/28 10:18:15;;;;;;;4.90;3.35;;;;;;;27.68;27.55;100966.09;5050358;28;20500;-36
2022/10/28 10:20:46;;;;;;;7.88;3.63;;;;;;;27.90;26.90;100962.91;5053937;28;20021;-36
2022/10/28 10:23:25;;;;;;;6.55;3.42;;;;;;;27.16;27.92;100964.91;5053799;28;20102;-36
2022/10/28 10:26:11;;;;;;;6.33;3.40;;;;;;;27.44;27.36;100958.69;5053900;28;20045;-36
2022/10/28 10:28:45;;;;;;;7.82;3.50;;;;;;;27.54;26.96;100946.81;5054014;28;20426;-37
2022/10/28 10:31:25;;;;;;;9.20;3.63;;;;;;;27.87;26.90;100958.81;5053772;28;20041;-36
2022/10/28 10:33:54;;;;;;;7.82;3.45;;;;;;;28.22;26.67;100953.22;5053470;28;20065;-37
2022/10/28 10:36:22;;;;;;;5.88;3.10;;;;;;;27.88;26.07;100948.66;5053960;28;20028;-38
2022/10/28 10:38:53;;;;;;;11.00;3.35;;;;;;;27.18;26.46;100947.13;5053883;28;20029;-36
2022/10/28 10:41:40;;;;;;;6.65;3.28;;;;;;;26.72;27.16;100937.34;5053989;28;20171;-35
2022/10/28 10:44:27;;;;;;;7.93;3.20;;;;;;;27.16;26.96;100934.84;5053964;28;20025;-38
2022/10/28 10:46:58;;;;;;;8.60;3.10;;;;;;;27.22;26.91;100934.50;5053925;28;20155;-35
2022/10/28 10:49:26;;;;;;;12.20;3.40;;;;;;;27.11;26.89;100931.06;5053746;28;20094;-36
2022/10/28 10:51:56;;;;;;;4.40;2.80;;;;;;;27.24;25.72;100920.56;5053113;28;20033;-37
2022/10/28 10:54:23;;;;;;;9.00;3.00;;;;;;;26.48;26.72;100922.72;5053645;28;20130;-37
2022/10/28 10:56:49;;;;;;;4.72;2.75;;;;;;;26.79;26.62;100917.09;5053618;28;20024;-36
2022/10/28 10:59:23;;;;;;;7.47;3.42;;;;;;;26.88;26.80;100916.22;5053546;28;20139;-37
2022/10/28 11:01:49;;;;;;;14.70;3.13;;;;;;;26.76;26.61;100917.69;5053144;28;20029;-37
2022/10/28 11:04:17;;;;;;;4.55;3.00;;;;;;;26.16;27.97;100909.50;5053055;28;20021;-36
2022/10/28 11:06:48;;;;;;;8.70;3.35;;;;;;;26.69;27.38;100905.16;5053003;28;20059;-36
2022/10/28 11:09:28;;;;;;;5.22;3.03;;;;;;;27.38;26.24;100907.06;5053249;28;20100;-37
2022/10/28 11:11:54;;;;;;;4.10;2.40;;;;;;;26.56;26.45;100907.66;5051344;28;20484;-37
2022/10/28 11:14:27;;;;;;;4.72;2.38;;;;;;;25.55;27.63;100908.56;5051415;28;20061;-37
2022/10/28 11:16:58;;;;;;;4.60;2.53;;;;;;;24.99;28.13;100914.84;5052332;28;20029;-38
2022/10/28 11:19:35;;;;;;;5.07;2.88;;;;;;;24.83;28.77;100905.88;5052159;28;20017;-36
2022/10/28 11:22:27;;;;;;;4.15;2.78;;;;;;;24.58;29.29;100901.22;5053218;28;20475;-38
2022/10/28 11:24:55;;;;;;;5.32;3.10;;;;;;;25.16;31.00;100909.94;5052892;28;20547;-37
2022/10/28 11:27:53;;;;;;;3.67;2.55;;;;;;;26.32;27.04;100900.16;5052771;28;20221;-37
2022/10/28 11:30:24;;;;;;;5.93;3.00;;;;;;;26.29;26.49;100887.06;5051228;28;20036;-37